sensor_id;sensor_type;location;lat;lon;timestamp;P1;durP1;ratioP1;P2;durP2;ratioP2
35576;SDS011;21680;52.400;16.920;2024-02-15T00:01:41;24.60;;;12.60;;
35576;SDS011;21680;52.400;16.920;2024-02-15T00:04:07;21.80;;;12.80;;
35576;SDS011;21680;52.400;16.920;2024-02-15T00:06:36;21.50;;;12.10;;
35576;SDS011;21680;52.400;16.920;2024-02-15T00:09:01;24.20;;;12.80;;
35576;SDS011;21680;52.400;16.920;2024-02-15T00:11:32;27.10;;;13.40;;
35576;SDS011;21680;52.400;16.920;2024-02-15T00:13:58;27.10;;;12.90;;
35576;SDS011;21680;52.400;16.920;2024-02-15T00:16:26;24.00;;;12.50;;
35576;SDS011;21680;52.400;16.920;2024-02-15T00:18:52;19.70;;;11.90;;
35576;SDS011;21680;52.400;16.920;2024-02-15T00:21:28;27.70;;;12.80;;
35576;SDS011;21680;52.400;16.920;2024-02-15T00:23:54;26.60;;;12.30;;
35576;SDS011;21680;52.400;16.920;2024-02-15T00:26:21;24.50;;;12.30;;
35576;SDS011;21680;52.400;16.920;2024-02-15T00:28:46;26.40;;;12.40;;
35576;SDS011;21680;52.400;16.920;2024-02-15T00:31:18;27.70;;;12.60;;
35576;SDS011;21680;52.400;16.920;2024-02-15T00:33:46;25.20;;;13.20;;
35576;SDS011;21680;52.400;16.920;2024-02-15T00:36:12;30.80;;;13.90;;
35576;SDS011;21680;52.400;16.920;2024-02-15T00:38:38;26.50;;;14.20;;
35576;SDS011;21680;52.400;16.920;2024-02-15T00:41:08;28.10;;;14.60;;
35576;SDS011;21680;52.400;16.920;2024-02-15T00:43:36;28.70;;;13.30;;
35576;SDS011;21680;52.400;16.920;2024-02-15T00:46:01;29.00;;;14.40;;
35576;SDS011;21680;52.400;16.920;2024-02-15T00:48:31;30.60;;;13.70;;
35576;SDS011;21680;52.400;16.920;2024-02-15T00:50:57;26.10;;;12.40;;
35576;SDS011;21680;52.400;16.920;2024-02-15T00:53:23;28.30;;;11.90;;
35576;SDS011;21680;52.400;16.920;2024-02-15T00:55:48;27.70;;;12.20;;
35576;SDS011;21680;52.400;16.920;2024-02-15T00:58:14;26.10;;;12.70;;
35576;SDS011;21680;52.400;16.920;2024-02-15T01:00:39;23.60;;;12.10;;
35576;SDS011;21680;52.400;16.920;2024-02-15T01:03:04;26.00;;;13.20;;
35576;SDS011;21680;52.400;16.920;2024-02-15T01:05:30;26.70;;;13.00;;
35576;SDS011;21680;52.400;16.920;2024-02-15T01:07:56;28.50;;;12.70;;
35576;SDS011;21680;52.400;16.920;2024-02-15T01:10:21;28.70;;;12.40;;
35576;SDS011;21680;52.400;16.920;2024-02-15T01:12:49;26.80;;;12.30;;
35576;SDS011;21680;52.400;16.920;2024-02-15T01:15:14;26.90;;;13.70;;
35576;SDS011;21680;52.400;16.920;2024-02-15T01:17:45;23.90;;;13.50;;
35576;SDS011;21680;52.400;16.920;2024-02-15T01:20:10;25.40;;;12.60;;
35576;SDS011;21680;52.400;16.920;2024-02-15T01:22:36;28.70;;;13.80;;
35576;SDS011;21680;52.400;16.920;2024-02-15T01:25:01;27.70;;;13.30;;
35576;SDS011;21680;52.400;16.920;2024-02-15T01:27:28;27.60;;;14.20;;
35576;SDS011;21680;52.400;16.920;2024-02-15T01:29:55;28.00;;;13.30;;
35576;SDS011;21680;52.400;16.920;2024-02-15T01:32:21;26.20;;;13.20;;
35576;SDS011;21680;52.400;16.920;2024-02-15T01:34:47;27.10;;;12.90;;
35576;SDS011;21680;52.400;16.920;2024-02-15T01:37:12;28.80;;;14.30;;
35576;SDS011;21680;52.400;16.920;2024-02-15T01:39:38;25.70;;;12.40;;
35576;SDS011;21680;52.400;16.920;2024-02-15T01:42:03;24.90;;;12.70;;
35576;SDS011;21680;52.400;16.920;2024-02-15T01:44:29;26.50;;;13.30;;
35576;SDS011;21680;52.400;16.920;2024-02-15T01:46:54;26.70;;;15.30;;
35576;SDS011;21680;52.400;16.920;2024-02-15T01:49:21;29.90;;;15.00;;
35576;SDS011;21680;52.400;16.920;2024-02-15T01:51:47;31.00;;;15.40;;
35576;SDS011;21680;52.400;16.920;2024-02-15T01:54:15;29.30;;;15.80;;
35576;SDS011;21680;52.400;16.920;2024-02-15T01:56:42;26.50;;;15.10;;
35576;SDS011;21680;52.400;16.920;2024-02-15T01:59:08;30.30;;;15.70;;
35576;SDS011;21680;52.400;16.920;2024-02-15T02:01:37;27.10;;;15.40;;
35576;SDS011;21680;52.400;16.920;2024-02-15T02:04:03;30.20;;;16.50;;
35576;SDS011;21680;52.400;16.920;2024-02-15T02:06:29;26.40;;;14.30;;
35576;SDS011;21680;52.400;16.920;2024-02-15T02:08:55;26.10;;;14.90;;
35576;SDS011;21680;52.400;16.920;2024-02-15T02:11:21;23.40;;;14.00;;
35576;SDS011;21680;52.400;16.920;2024-02-15T02:13:47;25.20;;;14.20;;
35576;SDS011;21680;52.400;16.920;2024-02-15T02:16:25;25.30;;;12.80;;
35576;SDS011;21680;52.400;16.920;2024-02-15T02:18:54;28.20;;;12.90;;
35576;SDS011;21680;52.400;16.920;2024-02-15T02:21:21;25.20;;;13.00;;
35576;SDS011;21680;52.400;16.920;2024-02-15T02:23:48;27.00;;;13.00;;
35576;SDS011;21680;52.400;16.920;2024-02-15T02:26:18;24.40;;;13.10;;
35576;SDS011;21680;52.400;16.920;2024-02-15T02:28:46;26.10;;;13.40;;
35576;SDS011;21680;52.400;16.920;2024-02-15T02:31:12;25.60;;;14.10;;
35576;SDS011;21680;52.400;16.920;2024-02-15T02:33:37;29.10;;;13.60;;
35576;SDS011;21680;52.400;16.920;2024-02-15T02:36:04;28.40;;;14.60;;
35576;SDS011;21680;52.400;16.920;2024-02-15T02:38:35;24.20;;;13.60;;
35576;SDS011;21680;52.400;16.920;2024-02-15T02:41:06;25.90;;;12.60;;
35576;SDS011;21680;52.400;16.920;2024-02-15T02:43:31;26.70;;;13.70;;
35576;SDS011;21680;52.400;16.920;2024-02-15T02:45:57;30.20;;;12.90;;
35576;SDS011;21680;52.400;16.920;2024-02-15T02:48:22;29.80;;;13.50;;
35576;SDS011;21680;52.400;16.920;2024-02-15T02:50:48;25.70;;;13.70;;
35576;SDS011;21680;52.400;16.920;2024-02-15T02:53:14;25.70;;;13.10;;
35576;SDS011;21680;52.400;16.920;2024-02-15T02:55:40;27.50;;;13.20;;
35576;SDS011;21680;52.400;16.920;2024-02-15T02:58:06;25.60;;;13.20;;
35576;SDS011;21680;52.400;16.920;2024-02-15T03:00:32;23.60;;;13.20;;
35576;SDS011;21680;52.400;16.920;2024-02-15T03:02:58;25.30;;;13.20;;
35576;SDS011;21680;52.400;16.920;2024-02-15T03:05:25;23.30;;;12.70;;
35576;SDS011;21680;52.400;16.920;2024-02-15T03:07:51;27.80;;;13.00;;
35576;SDS011;21680;52.400;16.920;2024-02-15T03:10:17;29.50;;;13.40;;
35576;SDS011;21680;52.400;16.920;2024-02-15T03:12:43;22.90;;;12.30;;
35576;SDS011;21680;52.400;16.920;2024-02-15T03:15:12;21.80;;;13.00;;
35576;SDS011;21680;52.400;16.920;2024-02-15T03:17:41;26.80;;;13.10;;
35576;SDS011;21680;52.400;16.920;2024-02-15T03:20:08;26.30;;;14.70;;
35576;SDS011;21680;52.400;16.920;2024-02-15T03:22:55;29.10;;;15.60;;
35576;SDS011;21680;52.400;16.920;2024-02-15T03:25:20;26.50;;;14.60;;
35576;SDS011;21680;52.400;16.920;2024-02-15T03:27:48;22.20;;;13.40;;
35576;SDS011;21680;52.400;16.920;2024-02-15T03:30:24;22.90;;;13.10;;
35576;SDS011;21680;52.400;16.920;2024-02-15T03:32:51;25.70;;;14.10;;
35576;SDS011;21680;52.400;16.920;2024-02-15T03:35:17;26.00;;;13.30;;
35576;SDS011;21680;52.400;16.920;2024-02-15T03:37:47;27.10;;;13.00;;
35576;SDS011;21680;52.400;16.920;2024-02-15T03:40:16;29.10;;;14.20;;
35576;SDS011;21680;52.400;16.920;2024-02-15T03:42:41;31.10;;;13.40;;
35576;SDS011;21680;52.400;16.920;2024-02-15T03:45:07;21.80;;;12.20;;
35576;SDS011;21680;52.400;16.920;2024-02-15T03:47:33;24.40;;;12.60;;
35576;SDS011;21680;52.400;16.920;2024-02-15T03:49:59;24.60;;;13.00;;
35576;SDS011;21680;52.400;16.920;2024-02-15T03:52:25;19.00;;;11.90;;
35576;SDS011;21680;52.400;16.920;2024-02-15T03:54:50;22.60;;;12.70;;
35576;SDS011;21680;52.400;16.920;2024-02-15T03:57:17;23.20;;;12.60;;
35576;SDS011;21680;52.400;16.920;2024-02-15T03:59:46;24.60;;;12.60;;
35576;SDS011;21680;52.400;16.920;2024-02-15T04:02:15;23.00;;;12.30;;
35576;SDS011;21680;52.400;16.920;2024-02-15T04:04:41;23.40;;;12.00;;
35576;SDS011;21680;52.400;16.920;2024-02-15T04:07:08;19.70;;;11.30;;
35576;SDS011;21680;52.400;16.920;2024-02-15T04:09:33;23.50;;;12.40;;
35576;SDS011;21680;52.400;16.920;2024-02-15T04:12:01;21.70;;;11.50;;
35576;SDS011;21680;52.400;16.920;2024-02-15T04:14:26;21.50;;;13.00;;
35576;SDS011;21680;52.400;16.920;2024-02-15T04:16:52;20.80;;;11.70;;
35576;SDS011;21680;52.400;16.920;2024-02-15T04:19:18;22.10;;;11.80;;
35576;SDS011;21680;52.400;16.920;2024-02-15T04:21:45;21.80;;;11.60;;
35576;SDS011;21680;52.400;16.920;2024-02-15T04:24:12;21.40;;;10.80;;
35576;SDS011;21680;52.400;16.920;2024-02-15T04:26:38;20.90;;;11.20;;
35576;SDS011;21680;52.400;16.920;2024-02-15T04:29:03;19.40;;;10.90;;
35576;SDS011;21680;52.400;16.920;2024-02-15T04:31:29;26.80;;;13.80;;
35576;SDS011;21680;52.400;16.920;2024-02-15T04:33:55;20.40;;;11.60;;
35576;SDS011;21680;52.400;16.920;2024-02-15T04:36:23;23.20;;;12.70;;
35576;SDS011;21680;52.400;16.920;2024-02-15T04:38:50;21.30;;;11.80;;
35576;SDS011;21680;52.400;16.920;2024-02-15T04:41:16;22.80;;;12.10;;
35576;SDS011;21680;52.400;16.920;2024-02-15T04:43:48;22.90;;;12.20;;
35576;SDS011;21680;52.400;16.920;2024-02-15T04:46:14;23.60;;;11.80;;
35576;SDS011;21680;52.400;16.920;2024-02-15T04:48:41;21.20;;;11.70;;
35576;SDS011;21680;52.400;16.920;2024-02-15T04:51:08;20.90;;;12.30;;
35576;SDS011;21680;52.400;16.920;2024-02-15T04:53:35;19.70;;;11.50;;
35576;SDS011;21680;52.400;16.920;2024-02-15T04:56:01;23.60;;;13.10;;
35576;SDS011;21680;52.400;16.920;2024-02-15T04:58:32;24.30;;;12.70;;
35576;SDS011;21680;52.400;16.920;2024-02-15T05:01:01;21.90;;;12.10;;
35576;SDS011;21680;52.400;16.920;2024-02-15T05:03:29;25.90;;;12.40;;
35576;SDS011;21680;52.400;16.920;2024-02-15T05:05:59;24.80;;;12.50;;
35576;SDS011;21680;52.400;16.920;2024-02-15T05:08:25;24.50;;;13.20;;
35576;SDS011;21680;52.400;16.920;2024-02-15T05:10:51;21.20;;;12.30;;
35576;SDS011;21680;52.400;16.920;2024-02-15T05:13:21;23.00;;;13.10;;
35576;SDS011;21680;52.400;16.920;2024-02-15T05:15:46;25.50;;;12.70;;
35576;SDS011;21680;52.400;16.920;2024-02-15T05:18:12;27.30;;;14.30;;
35576;SDS011;21680;52.400;16.920;2024-02-15T05:20:38;24.80;;;13.70;;
35576;SDS011;21680;52.400;16.920;2024-02-15T05:23:05;22.80;;;12.50;;
35576;SDS011;21680;52.400;16.920;2024-02-15T05:25:31;22.20;;;12.10;;
35576;SDS011;21680;52.400;16.920;2024-02-15T05:27:58;24.90;;;13.60;;
35576;SDS011;21680;52.400;16.920;2024-02-15T05:30:23;24.50;;;12.50;;
35576;SDS011;21680;52.400;16.920;2024-02-15T05:32:50;26.50;;;14.40;;
35576;SDS011;21680;52.400;16.920;2024-02-15T05:35:17;22.80;;;13.40;;
35576;SDS011;21680;52.400;16.920;2024-02-15T05:37:43;25.00;;;14.50;;
35576;SDS011;21680;52.400;16.920;2024-02-15T05:40:08;21.10;;;12.20;;
35576;SDS011;21680;52.400;16.920;2024-02-15T05:42:40;26.40;;;13.60;;
35576;SDS011;21680;52.400;16.920;2024-02-15T05:45:27;22.10;;;13.00;;
35576;SDS011;21680;52.400;16.920;2024-02-15T05:48:02;25.40;;;13.00;;
35576;SDS011;21680;52.400;16.920;2024-02-15T05:50:31;24.80;;;13.50;;
35576;SDS011;21680;52.400;16.920;2024-02-15T05:52:56;25.70;;;13.70;;
35576;SDS011;21680;52.400;16.920;2024-02-15T05:55:23;26.50;;;13.50;;
35576;SDS011;21680;52.400;16.920;2024-02-15T05:57:48;26.10;;;13.80;;
35576;SDS011;21680;52.400;16.920;2024-02-15T06:00:14;25.00;;;14.20;;
35576;SDS011;21680;52.400;16.920;2024-02-15T06:02:40;31.00;;;15.70;;
35576;SDS011;21680;52.400;16.920;2024-02-15T06:05:05;27.00;;;15.30;;
35576;SDS011;21680;52.400;16.920;2024-02-15T06:07:31;25.80;;;15.00;;
35576;SDS011;21680;52.400;16.920;2024-02-15T06:09:57;33.10;;;16.00;;
35576;SDS011;21680;52.400;16.920;2024-02-15T06:12:27;30.00;;;16.40;;
35576;SDS011;21680;52.400;16.920;2024-02-15T06:14:53;28.70;;;15.90;;
35576;SDS011;21680;52.400;16.920;2024-02-15T06:17:18;27.70;;;15.40;;
35576;SDS011;21680;52.400;16.920;2024-02-15T06:19:43;27.30;;;15.90;;
35576;SDS011;21680;52.400;16.920;2024-02-15T06:22:08;39.60;;;17.20;;
35576;SDS011;21680;52.400;16.920;2024-02-15T06:24:33;27.40;;;16.20;;
35576;SDS011;21680;52.400;16.920;2024-02-15T06:26:59;28.50;;;16.60;;
35576;SDS011;21680;52.400;16.920;2024-02-15T06:29:27;32.70;;;16.70;;
35576;SDS011;21680;52.400;16.920;2024-02-15T06:32:11;28.60;;;15.70;;
35576;SDS011;21680;52.400;16.920;2024-02-15T06:34:55;31.70;;;16.30;;
35576;SDS011;21680;52.400;16.920;2024-02-15T06:37:39;28.60;;;15.20;;
35576;SDS011;21680;52.400;16.920;2024-02-15T06:40:24;34.50;;;15.60;;
35576;SDS011;21680;52.400;16.920;2024-02-15T06:42:49;27.60;;;14.70;;
35576;SDS011;21680;52.400;16.920;2024-02-15T06:45:15;26.10;;;14.30;;
35576;SDS011;21680;52.400;16.920;2024-02-15T06:47:41;27.40;;;14.70;;
35576;SDS011;21680;52.400;16.920;2024-02-15T06:50:11;30.50;;;15.20;;
35576;SDS011;21680;52.400;16.920;2024-02-15T06:52:37;29.30;;;14.80;;
35576;SDS011;21680;52.400;16.920;2024-02-15T06:55:03;30.30;;;14.80;;
35576;SDS011;21680;52.400;16.920;2024-02-15T06:57:30;36.20;;;14.70;;
35576;SDS011;21680;52.400;16.920;2024-02-15T06:59:56;28.80;;;15.30;;
35576;SDS011;21680;52.400;16.920;2024-02-15T07:02:21;28.50;;;14.40;;
35576;SDS011;21680;52.400;16.920;2024-02-15T07:04:48;26.40;;;14.40;;
35576;SDS011;21680;52.400;16.920;2024-02-15T07:07:14;30.30;;;14.80;;
35576;SDS011;21680;52.400;16.920;2024-02-15T07:09:40;29.40;;;14.50;;
35576;SDS011;21680;52.400;16.920;2024-02-15T07:12:05;26.00;;;14.10;;
35576;SDS011;21680;52.400;16.920;2024-02-15T07:14:30;24.20;;;13.10;;
35576;SDS011;21680;52.400;16.920;2024-02-15T07:16:56;29.90;;;15.80;;
35576;SDS011;21680;52.400;16.920;2024-02-15T07:19:24;34.00;;;14.90;;
35576;SDS011;21680;52.400;16.920;2024-02-15T07:21:52;30.80;;;14.00;;
35576;SDS011;21680;52.400;16.920;2024-02-15T07:24:20;29.80;;;14.20;;
35576;SDS011;21680;52.400;16.920;2024-02-15T07:26:45;29.10;;;15.30;;
35576;SDS011;21680;52.400;16.920;2024-02-15T07:29:10;33.60;;;15.20;;
35576;SDS011;21680;52.400;16.920;2024-02-15T07:31:36;23.50;;;13.30;;
35576;SDS011;21680;52.400;16.920;2024-02-15T07:34:01;29.20;;;16.10;;
35576;SDS011;21680;52.400;16.920;2024-02-15T07:36:28;27.00;;;16.10;;
35576;SDS011;21680;52.400;16.920;2024-02-15T07:38:54;37.70;;;16.60;;
35576;SDS011;21680;52.400;16.920;2024-02-15T07:41:22;29.90;;;16.60;;
35576;SDS011;21680;52.400;16.920;2024-02-15T07:43:49;28.30;;;16.20;;
35576;SDS011;21680;52.400;16.920;2024-02-15T07:46:16;29.60;;;15.00;;
35576;SDS011;21680;52.400;16.920;2024-02-15T07:48:44;33.70;;;16.80;;
35576;SDS011;21680;52.400;16.920;2024-02-15T07:51:17;31.00;;;15.50;;
35576;SDS011;21680;52.400;16.920;2024-02-15T07:53:44;36.80;;;17.60;;
35576;SDS011;21680;52.400;16.920;2024-02-15T07:56:10;28.00;;;16.20;;
35576;SDS011;21680;52.400;16.920;2024-02-15T07:58:43;27.80;;;15.50;;
35576;SDS011;21680;52.400;16.920;2024-02-15T08:01:15;36.40;;;16.60;;
35576;SDS011;21680;52.400;16.920;2024-02-15T08:03:47;31.30;;;15.80;;
35576;SDS011;21680;52.400;16.920;2024-02-15T08:06:13;27.30;;;15.90;;
35576;SDS011;21680;52.400;16.920;2024-02-15T08:08:41;32.60;;;15.10;;
35576;SDS011;21680;52.400;16.920;2024-02-15T08:11:08;27.10;;;14.40;;
35576;SDS011;21680;52.400;16.920;2024-02-15T08:13:41;31.80;;;15.00;;
35576;SDS011;21680;52.400;16.920;2024-02-15T08:16:10;32.40;;;15.00;;
35576;SDS011;21680;52.400;16.920;2024-02-15T08:18:37;24.60;;;13.20;;
35576;SDS011;21680;52.400;16.920;2024-02-15T08:21:04;23.50;;;13.60;;
35576;SDS011;21680;52.400;16.920;2024-02-15T08:23:30;29.00;;;13.30;;
35576;SDS011;21680;52.400;16.920;2024-02-15T08:25:55;26.10;;;14.10;;
35576;SDS011;21680;52.400;16.920;2024-02-15T08:28:20;27.10;;;13.80;;
35576;SDS011;21680;52.400;16.920;2024-02-15T08:30:45;30.00;;;14.40;;
35576;SDS011;21680;52.400;16.920;2024-02-15T08:33:12;30.30;;;14.10;;
35576;SDS011;21680;52.400;16.920;2024-02-15T08:35:37;30.10;;;16.40;;
35576;SDS011;21680;52.400;16.920;2024-02-15T08:38:05;27.90;;;13.90;;
35576;SDS011;21680;52.400;16.920;2024-02-15T08:40:30;33.40;;;14.40;;
35576;SDS011;21680;52.400;16.920;2024-02-15T08:42:56;31.90;;;14.30;;
35576;SDS011;21680;52.400;16.920;2024-02-15T08:45:22;47.20;;;16.40;;
35576;SDS011;21680;52.400;16.920;2024-02-15T08:47:48;69.80;;;18.10;;
35576;SDS011;21680;52.400;16.920;2024-02-15T08:50:15;40.20;;;15.30;;
35576;SDS011;21680;52.400;16.920;2024-02-15T08:52:41;32.00;;;14.70;;
35576;SDS011;21680;52.400;16.920;2024-02-15T08:55:10;37.30;;;15.50;;
35576;SDS011;21680;52.400;16.920;2024-02-15T08:57:39;25.70;;;13.50;;
35576;SDS011;21680;52.400;16.920;2024-02-15T09:00:06;23.50;;;13.40;;
35576;SDS011;21680;52.400;16.920;2024-02-15T09:02:38;26.90;;;11.90;;
35576;SDS011;21680;52.400;16.920;2024-02-15T09:05:05;24.60;;;12.60;;
35576;SDS011;21680;52.400;16.920;2024-02-15T09:07:30;21.00;;;11.60;;
35576;SDS011;21680;52.400;16.920;2024-02-15T09:09:56;19.60;;;11.90;;
35576;SDS011;21680;52.400;16.920;2024-02-15T09:12:21;22.80;;;12.10;;
35576;SDS011;21680;52.400;16.920;2024-02-15T09:14:47;22.50;;;11.60;;
35576;SDS011;21680;52.400;16.920;2024-02-15T09:17:13;27.40;;;11.10;;
35576;SDS011;21680;52.400;16.920;2024-02-15T09:19:39;24.10;;;11.20;;
35576;SDS011;21680;52.400;16.920;2024-02-15T09:22:04;28.40;;;11.10;;
35576;SDS011;21680;52.400;16.920;2024-02-15T09:24:30;22.50;;;11.70;;
35576;SDS011;21680;52.400;16.920;2024-02-15T09:26:55;20.40;;;11.20;;
35576;SDS011;21680;52.400;16.920;2024-02-15T09:29:21;20.60;;;11.60;;
35576;SDS011;21680;52.400;16.920;2024-02-15T09:31:47;18.70;;;11.20;;
35576;SDS011;21680;52.400;16.920;2024-02-15T09:34:13;18.70;;;11.60;;
35576;SDS011;21680;52.400;16.920;2024-02-15T09:36:39;18.70;;;10.60;;
35576;SDS011;21680;52.400;16.920;2024-02-15T09:39:04;20.00;;;9.70;;
35576;SDS011;21680;52.400;16.920;2024-02-15T09:41:31;23.20;;;9.90;;
35576;SDS011;21680;52.400;16.920;2024-02-15T09:43:57;16.10;;;9.80;;
35576;SDS011;21680;52.400;16.920;2024-02-15T09:46:23;20.40;;;9.50;;
35576;SDS011;21680;52.400;16.920;2024-02-15T09:48:49;19.30;;;9.30;;
35576;SDS011;21680;52.400;16.920;2024-02-15T09:51:20;15.30;;;8.50;;
35576;SDS011;21680;52.400;16.920;2024-02-15T09:53:46;26.50;;;10.80;;
35576;SDS011;21680;52.400;16.920;2024-02-15T09:56:12;21.80;;;9.40;;
35576;SDS011;21680;52.400;16.920;2024-02-15T09:58:40;21.50;;;9.40;;
35576;SDS011;21680;52.400;16.920;2024-02-15T10:01:06;23.90;;;9.80;;
35576;SDS011;21680;52.400;16.920;2024-02-15T10:03:38;16.90;;;8.60;;
35576;SDS011;21680;52.400;16.920;2024-02-15T10:08:31;19.20;;;10.90;;
35576;SDS011;21680;52.400;16.920;2024-02-15T10:11:09;19.10;;;10.30;;
35576;SDS011;21680;52.400;16.920;2024-02-15T10:13:35;19.70;;;9.90;;
35576;SDS011;21680;52.400;16.920;2024-02-15T10:16:18;21.90;;;10.10;;
35576;SDS011;21680;52.400;16.920;2024-02-15T10:18:45;36.30;;;13.70;;
35576;SDS011;21680;52.400;16.920;2024-02-15T10:21:25;25.50;;;12.70;;
35576;SDS011;21680;52.400;16.920;2024-02-15T10:24:08;28.10;;;11.50;;
35576;SDS011;21680;52.400;16.920;2024-02-15T10:26:34;23.90;;;11.40;;
35576;SDS011;21680;52.400;16.920;2024-02-15T10:29:10;22.90;;;12.70;;
35576;SDS011;21680;52.400;16.920;2024-02-15T10:31:37;24.00;;;12.90;;
35576;SDS011;21680;52.400;16.920;2024-02-15T10:34:05;29.90;;;11.80;;
35576;SDS011;21680;52.400;16.920;2024-02-15T10:36:31;23.80;;;11.40;;
35576;SDS011;21680;52.400;16.920;2024-02-15T10:39:32;22.80;;;12.10;;
35576;SDS011;21680;52.400;16.920;2024-02-15T10:41:53;21.30;;;10.60;;
35576;SDS011;21680;52.400;16.920;2024-02-15T10:44:20;20.40;;;10.70;;
35576;SDS011;21680;52.400;16.920;2024-02-15T10:46:50;24.50;;;10.80;;
35576;SDS011;21680;52.400;16.920;2024-02-15T10:49:18;22.40;;;11.00;;
35576;SDS011;21680;52.400;16.920;2024-02-15T10:51:44;22.70;;;11.60;;
35576;SDS011;21680;52.400;16.920;2024-02-15T10:54:14;23.20;;;10.40;;
35576;SDS011;21680;52.400;16.920;2024-02-15T10:56:47;22.50;;;12.30;;
35576;SDS011;21680;52.400;16.920;2024-02-15T10:59:18;21.10;;;10.60;;
35576;SDS011;21680;52.400;16.920;2024-02-15T11:01:49;24.50;;;9.80;;
35576;SDS011;21680;52.400;16.920;2024-02-15T11:04:20;21.30;;;11.60;;
35576;SDS011;21680;52.400;16.920;2024-02-15T11:06:52;23.40;;;11.10;;
35576;SDS011;21680;52.400;16.920;2024-02-15T11:09:20;22.90;;;11.20;;
35576;SDS011;21680;52.400;16.920;2024-02-15T11:11:47;22.90;;;10.80;;
35576;SDS011;21680;52.400;16.920;2024-02-15T11:14:31;17.90;;;10.40;;
35576;SDS011;21680;52.400;16.920;2024-02-15T11:16:58;20.80;;;11.60;;
35576;SDS011;21680;52.400;16.920;2024-02-15T11:22:09;21.30;;;10.90;;
35576;SDS011;21680;52.400;16.920;2024-02-15T11:27:10;21.80;;;10.00;;
35576;SDS011;21680;52.400;16.920;2024-02-15T11:29:57;17.00;;;9.90;;
35576;SDS011;21680;52.400;16.920;2024-02-15T11:32:49;17.60;;;9.00;;
35576;SDS011;21680;52.400;16.920;2024-02-15T11:35:18;16.20;;;9.00;;
35576;SDS011;21680;52.400;16.920;2024-02-15T11:41:06;22.10;;;11.40;;
35576;SDS011;21680;52.400;16.920;2024-02-15T11:46:19;20.60;;;9.10;;
35576;SDS011;21680;52.400;16.920;2024-02-15T11:48:45;18.30;;;8.60;;
35576;SDS011;21680;52.400;16.920;2024-02-15T11:54:00;16.90;;;9.60;;
35576;SDS011;21680;52.400;16.920;2024-02-15T11:56:31;18.90;;;10.20;;
35576;SDS011;21680;52.400;16.920;2024-02-15T11:59:04;17.70;;;10.20;;
35576;SDS011;21680;52.400;16.920;2024-02-15T12:01:31;15.20;;;8.60;;
35576;SDS011;21680;52.400;16.920;2024-02-15T12:04:16;17.30;;;9.70;;
35576;SDS011;21680;52.400;16.920;2024-02-15T12:07:02;17.10;;;10.10;;
35576;SDS011;21680;52.400;16.920;2024-02-15T12:09:46;20.10;;;11.20;;
35576;SDS011;21680;52.400;16.920;2024-02-15T12:12:30;21.90;;;12.10;;
35576;SDS011;21680;52.400;16.920;2024-02-15T12:15:14;19.50;;;11.10;;
35576;SDS011;21680;52.400;16.920;2024-02-15T12:18:14;21.30;;;12.20;;
35576;SDS011;21680;52.400;16.920;2024-02-15T12:20:59;23.40;;;12.20;;
35576;SDS011;21680;52.400;16.920;2024-02-15T12:23:27;22.80;;;12.70;;
35576;SDS011;21680;52.400;16.920;2024-02-15T12:25:55;25.30;;;13.10;;
35576;SDS011;21680;52.400;16.920;2024-02-15T12:28:21;20.90;;;13.50;;
35576;SDS011;21680;52.400;16.920;2024-02-15T12:30:47;24.70;;;13.60;;
35576;SDS011;21680;52.400;16.920;2024-02-15T12:33:20;20.40;;;12.70;;
35576;SDS011;21680;52.400;16.920;2024-02-15T12:35:46;22.40;;;12.70;;
35576;SDS011;21680;52.400;16.920;2024-02-15T12:38:11;22.70;;;12.80;;
35576;SDS011;21680;52.400;16.920;2024-02-15T12:40:41;28.80;;;13.40;;
35576;SDS011;21680;52.400;16.920;2024-02-15T12:43:09;23.30;;;12.90;;
35576;SDS011;21680;52.400;16.920;2024-02-15T12:45:38;19.90;;;12.40;;
35576;SDS011;21680;52.400;16.920;2024-02-15T12:50:32;24.20;;;12.40;;
35576;SDS011;21680;52.400;16.920;2024-02-15T12:52:59;27.20;;;16.10;;
35576;SDS011;21680;52.400;16.920;2024-02-15T12:55:29;26.60;;;16.20;;
35576;SDS011;21680;52.400;16.920;2024-02-15T12:58:05;28.10;;;16.50;;
35576;SDS011;21680;52.400;16.920;2024-02-15T13:00:35;34.50;;;15.50;;
35576;SDS011;21680;52.400;16.920;2024-02-15T13:03:04;30.00;;;16.20;;
35576;SDS011;21680;52.400;16.920;2024-02-15T13:05:30;35.80;;;15.90;;
35576;SDS011;21680;52.400;16.920;2024-02-15T13:07:57;21.30;;;12.60;;
35576;SDS011;21680;52.400;16.920;2024-02-15T13:10:30;23.10;;;12.30;;
35576;SDS011;21680;52.400;16.920;2024-02-15T13:12:56;22.10;;;12.10;;
35576;SDS011;21680;52.400;16.920;2024-02-15T13:15:24;21.70;;;12.10;;
35576;SDS011;21680;52.400;16.920;2024-02-15T13:17:53;21.10;;;12.30;;
35576;SDS011;21680;52.400;16.920;2024-02-15T13:20:20;22.80;;;12.80;;
35576;SDS011;21680;52.400;16.920;2024-02-15T13:22:55;21.40;;;12.20;;
35576;SDS011;21680;52.400;16.920;2024-02-15T13:25:25;29.20;;;12.70;;
35576;SDS011;21680;52.400;16.920;2024-02-15T13:27:50;24.70;;;13.50;;
35576;SDS011;21680;52.400;16.920;2024-02-15T13:30:16;24.50;;;12.90;;
35576;SDS011;21680;52.400;16.920;2024-02-15T13:32:46;22.30;;;13.10;;
35576;SDS011;21680;52.400;16.920;2024-02-15T13:35:11;26.40;;;13.40;;
35576;SDS011;21680;52.400;16.920;2024-02-15T13:37:47;21.50;;;13.30;;
35576;SDS011;21680;52.400;16.920;2024-02-15T13:40:13;25.60;;;13.80;;
35576;SDS011;21680;52.400;16.920;2024-02-15T13:42:45;29.30;;;15.20;;
35576;SDS011;21680;52.400;16.920;2024-02-15T13:45:17;30.90;;;15.20;;
35576;SDS011;21680;52.400;16.920;2024-02-15T13:47:49;27.00;;;14.60;;
35576;SDS011;21680;52.400;16.920;2024-02-15T13:50:16;29.30;;;14.60;;
35576;SDS011;21680;52.400;16.920;2024-02-15T13:52:42;27.10;;;14.30;;
35576;SDS011;21680;52.400;16.920;2024-02-15T13:55:13;26.80;;;14.20;;
35576;SDS011;21680;52.400;16.920;2024-02-15T13:57:42;26.20;;;14.80;;
35576;SDS011;21680;52.400;16.920;2024-02-15T14:00:11;24.90;;;14.00;;
35576;SDS011;21680;52.400;16.920;2024-02-15T14:02:40;27.30;;;14.20;;
35576;SDS011;21680;52.400;16.920;2024-02-15T14:05:08;23.20;;;14.30;;
35576;SDS011;21680;52.400;16.920;2024-02-15T14:07:37;25.50;;;15.30;;
35576;SDS011;21680;52.400;16.920;2024-02-15T14:10:05;25.60;;;14.10;;
35576;SDS011;21680;52.400;16.920;2024-02-15T14:12:31;24.70;;;14.80;;
35576;SDS011;21680;52.400;16.920;2024-02-15T14:14:57;28.50;;;15.20;;
35576;SDS011;21680;52.400;16.920;2024-02-15T14:17:26;28.20;;;16.30;;
35576;SDS011;21680;52.400;16.920;2024-02-15T14:19:53;35.40;;;17.70;;
35576;SDS011;21680;52.400;16.920;2024-02-15T14:22:18;37.40;;;19.20;;
35576;SDS011;21680;52.400;16.920;2024-02-15T14:24:43;33.10;;;16.70;;
35576;SDS011;21680;52.400;16.920;2024-02-15T14:27:09;31.80;;;18.10;;
35576;SDS011;21680;52.400;16.920;2024-02-15T14:29:39;38.30;;;18.00;;
35576;SDS011;21680;52.400;16.920;2024-02-15T14:32:25;35.50;;;18.70;;
35576;SDS011;21680;52.400;16.920;2024-02-15T14:35:09;34.80;;;20.10;;